Time;durP1;ratioP1;P1;durP2;ratioP2;P2;SDS_P1;SDS_P2;PMS_P1;PMS_P2;Temp;Humidity;BMP_temperature;BMP_pressure;BME280_temperature;BME280_humidity;BME280_pressure;Samples;Min_cycle;Max_cycle;Signal;HPM_P1;HPM_P2
2022/05/23 00:02:01;;;;;;;5.05;2.88;;;;;;;;;;4973585;28;20065;-51
2022/05/23 00:04:28;;;;;;;6.72;3.58;;;;;;;;;;4973350;28;20122;-49
2022/05/23 00:06:56;;;;;;;4.25;2.40;;;;;;;;;;4973404;28;20442;-53
2022/05/23 00:09:24;;;;;;;7.32;3.83;;;;;;;;;;4973327;28;20053;-58
2022/05/23 00:11:53;;;;;;;4.82;2.85;;;;;;;;;;4973155;28;20039;-64
2022/05/23 00:14:21;;;;;;;6.05;3.35;;;;;;;;;;4973054;28;20053;-61
2022/05/23 00:16:50;;;;;;;4.43;2.92;;;;;;;;;;4972911;28;20047;-65
2022/05/23 00:19:19;;;;;;;5.82;2.88;;;;;;;;;;4973068;28;20054;-61
2022/05/23 00:21:46;;;;;;;4.28;3.05;;;;;;;;;;4973104;28;20035;-69
2022/05/23 00:24:15;;;;;;;7.55;3.13;;;;;;;;;;4972892;28;20443;-59
2022/05/23 00:26:46;;;;;;;5.25;2.60;;;;;;;;;;4973007;28;20106;-66
2022/05/23 00:29:14;;;;;;;5.93;3.40;;;;;;;;;;4971360;28;20043;-61
2022/05/23 00:35:17;;;;;;;9.30;3.00;;;;;;;;;;4973019;28;20501;-69
2022/05/23 00:37:14;;;;;;;5.50;3.10;;;;;;;;;;4972903;28;20042;-58
2022/05/23 00:39:42;;;;;;;6.18;3.72;;;;;;;;;;4972595;28;20053;-58
2022/05/23 00:45:03;;;;;;;4.32;2.78;;;;;;;;;;4972956;28;20414;-61
2022/05/23 00:47:34;;;;;;;6.57;3.47;;;;;;;;;;4955598;28;20506;-61
2022/05/23 00:50:02;;;;;;;5.88;3.50;;;;;;;;;;4972611;28;20050;-64
2022/05/23 00:52:35;;;;;;;4.10;2.50;;;;;;;;;;4973048;28;20043;-61
2022/05/23 00:55:07;;;;;;;7.03;4.28;;;;;;;;;;4955484;28;20050;-53
2022/05/23 00:57:40;;;;;;;5.15;3.20;;;;;;;;;;4972587;28;20043;-59
2022/05/23 01:00:10;;;;;;;6.50;3.00;;;;;;;;;;4972526;28;20114;-58
2022/05/23 01:02:38;;;;;;;5.25;3.33;;;;;;;;;;4972399;28;20038;-52
2022/05/23 01:05:08;;;;;;;7.10;3.58;;;;;;;;;;4972512;28;20078;-52
2022/05/23 01:07:35;;;;;;;5.20;3.17;;;;;;;;;;4955044;28;20047;-53
2022/05/23 01:10:04;;;;;;;9.57;4.25;;;;;;;;;;4955418;28;20073;-56
2022/05/23 01:12:32;;;;;;;6.90;3.38;;;;;;;;;;4955368;28;20047;-52
2022/05/23 01:15:00;;;;;;;8.65;4.35;;;;;;;;;;4955240;28;20050;-58
2022/05/23 01:17:29;;;;;;;5.63;3.70;;;;;;;;;;4971324;28;20059;-56
2022/05/23 01:20:07;;;;;;;7.00;3.40;;;;;;;;;;4972303;28;20054;-51
2022/05/23 01:23:02;;;;;;;5.40;3.53;;;;;;;;;;4972566;28;20058;-54
2022/05/23 01:25:45;;;;;;;4.53;3.22;;;;;;;;;;4956761;28;20043;-51
2022/05/23 01:28:32;;;;;;;5.60;3.67;;;;;;;;;;4954923;28;20043;-51
2022/05/23 01:31:00;;;;;;;10.00;4.53;;;;;;;;;;4971257;28;20094;-55
2022/05/23 01:33:30;;;;;;;7.40;3.65;;;;;;;;;;4955046;28;20411;-52
2022/05/23 01:35:59;;;;;;;5.88;3.70;;;;;;;;;;4954957;28;20518;-52
2022/05/23 01:38:27;;;;;;;5.30;3.45;;;;;;;;;;4970935;28;20070;-50
2022/05/23 01:41:04;;;;;;;4.57;3.33;;;;;;;;;;4972668;28;20544;-61
2022/05/23 01:43:33;;;;;;;6.88;4.35;;;;;;;;;;4955108;28;20141;-64
2022/05/23 01:46:20;;;;;;;6.25;3.40;;;;;;;;;;4972196;28;20129;-66
2022/05/23 01:49:13;;;;;;;;;;;;;;;;;;4970264;28;20540;-65
2022/05/23 01:51:41;;;;;;;5.93;3.33;;;;;;;;;;4973173;28;20386;-59
2022/05/23 01:54:12;;;;;;;7.32;3.97;;;;;;;;;;4958123;28;20039;-66
2022/05/23 01:56:41;;;;;;;5.70;3.58;;;;;;;;;;4958163;28;20101;-65
2022/05/23 02:02:00;;;;;;;8.02;3.92;;;;;;;;;;4958397;28;20051;-64
2022/05/23 02:04:32;;;;;;;9.20;3.42;;;;;;;;;;4956544;28;20137;-62
2022/05/23 02:07:00;;;;;;;4.85;3.10;;;;;;;;;;4955320;29;20062;-63
2022/05/23 02:09:34;;;;;;;6.68;4.05;;;;;;;;;;4956508;29;20066;-53
2022/05/23 02:12:28;;;;;;;4.68;3.10;;;;;;;;;;4954883;28;20059;-51
2022/05/23 02:14:59;;;;;;;6.20;3.60;;;;;;;;;;4954784;29;20047;-52
2022/05/23 02:17:46;;;;;;;6.38;3.67;;;;;;;;;;4956484;28;20051;-56
2022/05/23 02:20:15;;;;;;;8.60;3.03;;;;;;;;;;4954477;28;20134;-57
2022/05/23 02:22:43;;;;;;;7.28;4.00;;;;;;;;;;4970614;28;20046;-55
2022/05/23 02:25:22;;;;;;;6.53;3.92;;;;;;;;;;4970788;28;20523;-49
2022/05/23 02:27:50;;;;;;;5.55;3.30;;;;;;;;;;4954516;29;20051;-52
2022/05/23 02:30:18;;;;;;;7.03;3.28;;;;;;;;;;4967998;28;20082;-54
2022/05/23 02:32:47;;;;;;;4.78;3.17;;;;;;;;;;4957693;28;20050;-55
2022/05/23 02:35:16;;;;;;;4.95;3.17;;;;;;;;;;4957546;28;20043;-59
2022/05/23 02:37:45;;;;;;;5.10;2.92;;;;;;;;;;4957644;28;20046;-58
2022/05/23 02:40:14;;;;;;;4.93;2.95;;;;;;;;;;4973681;28;20039;-57
2022/05/23 02:42:41;;;;;;;5.53;3.45;;;;;;;;;;4974775;28;20449;-62
2022/05/23 02:45:09;;;;;;;4.43;3.15;;;;;;;;;;4974774;28;20035;-55
2022/05/23 02:47:43;;;;;;;5.70;3.28;;;;;;;;;;4974715;28;20042;-51
2022/05/23 02:50:13;;;;;;;5.05;3.20;;;;;;;;;;4973231;28;20050;-52
2022/05/23 02:52:44;;;;;;;4.50;2.75;;;;;;;;;;4974544;28;20035;-51
2022/05/23 02:55:37;;;;;;;11.27;5.65;;;;;;;;;;4974272;28;20055;-51
2022/05/23 02:58:07;;;;;;;7.72;3.92;;;;;;;;;;4974355;28;20432;-54
2022/05/23 03:00:35;;;;;;;4.90;3.08;;;;;;;;;;4973642;28;20042;-57
2022/05/23 03:03:06;;;;;;;6.68;2.85;;;;;;;;;;4956080;28;20046;-60
2022/05/23 03:05:40;;;;;;;6.03;3.70;;;;;;;;;;4956997;28;20411;-57
2022/05/23 03:08:11;;;;;;;8.05;3.70;;;;;;;;;;4957011;28;20380;-53
2022/05/23 03:10:39;;;;;;;6.90;3.00;;;;;;;;;;4957069;28;20070;-49
2022/05/23 03:13:09;;;;;;;10.80;5.57;;;;;;;;;;4973110;28;20434;-52
2022/05/23 03:15:36;;;;;;;6.88;4.07;;;;;;;;;;4974189;28;20046;-54
2022/05/23 03:18:04;;;;;;;4.97;3.15;;;;;;;;;;4957045;28;20073;-67
2022/05/23 03:20:35;;;;;;;7.50;3.20;;;;;;;;;;4956789;28;20054;-62
2022/05/23 03:28:37;;;;;;;5.05;3.15;;;;;;;;;;4972576;28;20043;-59
2022/05/23 03:31:05;;;;;;;55.80;27.25;;;;;;;;;;4992711;28;20035;-59
2022/05/23 03:33:34;;;;;;;8.70;5.13;;;;;;;;;;4992211;28;20081;-59
2022/05/23 03:36:03;;;;;;;6.53;3.60;;;;;;;;;;4992050;28;20049;-53
2022/05/23 03:38:30;;;;;;;5.25;3.63;;;;;;;;;;4975778;28;20043;-66
2022/05/23 03:41:05;;;;;;;7.63;3.35;;;;;;;;;;4992988;28;20053;-51
2022/05/23 03:43:32;;;;;;;5.75;2.80;;;;;;;;;;4993334;28;20030;-51
2022/05/23 03:46:08;;;;;;;7.57;3.47;;;;;;;;;;4975906;28;20494;-51
2022/05/23 03:48:36;;;;;;;6.75;3.47;;;;;;;;;;4991811;28;20049;-55
2022/05/23 03:51:06;;;;;;;5.53;2.55;;;;;;;;;;4993069;28;20044;-52
2022/05/23 03:53:34;;;;;;;4.28;2.40;;;;;;;;;;4991726;28;20121;-51
2022/05/23 03:56:05;;;;;;;39.72;16.55;;;;;;;;;;4991622;28;20137;-52
2022/05/23 03:58:40;;;;;;;9.75;4.50;;;;;;;;;;4990880;28;20058;-52
2022/05/23 04:01:26;;;;;;;4.90;3.28;;;;;;;;;;4991446;28;20050;-50
2022/05/23 04:04:13;;;;;;;6.13;2.65;;;;;;;;;;4991476;28;20050;-63
2022/05/23 04:06:59;;;;;;;6.35;3.33;;;;;;;;;;5007676;28;20049;-62
2022/05/23 04:09:31;;;;;;;5.40;2.83;;;;;;;;;;4990845;28;20053;-56
2022/05/23 04:11:59;;;;;;;9.60;3.03;;;;;;;;;;4992414;28;20450;-64
2022/05/23 04:14:26;;;;;;;4.85;2.80;;;;;;;;;;4990868;28;20097;-56
2022/05/23 04:16:54;;;;;;;8.38;2.80;;;;;;;;;;4991187;28;20042;-51
2022/05/23 04:19:23;;;;;;;8.23;3.25;;;;;;;;;;4992356;28;20038;-56
2022/05/23 04:22:10;;;;;;;6.32;2.60;;;;;;;;;;4992298;28;20054;-57
2022/05/23 04:24:47;;;;;;;7.28;2.47;;;;;;;;;;4992484;28;20070;-51
2022/05/23 04:27:18;;;;;;;5.13;2.80;;;;;;;;;;4991175;28;20051;-59
2022/05/23 04:29:46;;;;;;;8.52;4.75;;;;;;;;;;4992310;28;20046;-52
2022/05/23 04:35:13;;;;;;;7.25;3.00;;;;;;;;;;5007061;28;20069;-53
2022/05/23 04:37:48;;;;;;;5.85;2.60;;;;;;;;;;4990884;28;20065;-54
2022/05/23 04:40:28;;;;;;;5.28;2.60;;;;;;;;;;4990965;28;20101;-51
2022/05/23 04:42:57;;;;;;;5.93;2.70;;;;;;;;;;4990847;28;20446;-50
2022/05/23 04:45:25;;;;;;;8.57;2.85;;;;;;;;;;4990734;28;20494;-52
2022/05/23 04:51:17;;;;;;;6.20;2.30;;;;;;;;;;5007057;28;20457;-55
2022/05/23 04:53:53;;;;;;;7.03;3.10;;;;;;;;;;4990912;28;20046;-54
2022/05/23 04:56:23;;;;;;;9.02;3.17;;;;;;;;;;4991851;28;20057;-54
2022/05/23 04:58:56;;;;;;;6.63;2.78;;;;;;;;;;4990770;28;20038;-58
2022/05/23 05:01:24;;;;;;;4.53;2.67;;;;;;;;;;4991893;28;20039;-53
2022/05/23 05:03:55;;;;;;;6.03;3.67;;;;;;;;;;4990727;28;20462;-61
2022/05/23 05:06:25;;;;;;;6.45;2.78;;;;;;;;;;4990385;28;20050;-51
2022/05/23 05:08:53;;;;;;;6.63;2.55;;;;;;;;;;4990360;28;20055;-52
2022/05/23 05:11:20;;;;;;;6.05;2.65;;;;;;;;;;5006930;28;20151;-51
2022/05/23 05:14:07;;;;;;;6.28;2.67;;;;;;;;;;4991870;28;20055;-56
2022/05/23 05:16:37;;;;;;;6.53;2.92;;;;;;;;;;4990779;28;20137;-62
2022/05/23 05:19:06;;;;;;;6.55;2.45;;;;;;;;;;4990487;28;20058;-54
2022/05/23 05:22:03;;;;;;;6.95;2.90;;;;;;;;;;4991698;28;20043;-51
2022/05/23 05:25:05;;;;;;;8.23;2.60;;;;;;;;;;4990267;28;20573;-66
2022/05/23 05:27:37;;;;;;;4.85;2.40;;;;;;;;;;4995953;28;20112;-65
2022/05/23 05:30:08;;;;;;;9.77;2.97;;;;;;;;;;4990999;28;20047;-63
2022/05/23 05:33:00;;;;;;;5.63;3.00;;;;;;;;;;4976172;28;20054;-53
2022/05/23 05:35:38;;;;;;;6.65;2.83;;;;;;;;;;4990848;28;20051;-51
2022/05/23 05:38:30;;;;;;;112.10;61.05;;;;;;;;;;4976009;28;20126;-60
2022/05/23 05:41:07;;;;;;;9.35;5.70;;;;;;;;;;4976087;28;20146;-59
2022/05/23 05:43:43;;;;;;;7.32;3.03;;;;;;;;;;4976037;28;20111;-52
2022/05/23 05:46:16;;;;;;;5.43;2.50;;;;;;;;;;4990756;28;20097;-59
2022/05/23 05:48:59;;;;;;;5.97;3.30;;;;;;;;;;4990772;28;20094;-50
2022/05/23 05:51:28;;;;;;;7.35;2.80;;;;;;;;;;4974464;28;20057;-63
2022/05/23 05:54:22;;;;;;;8.23;2.85;;;;;;;;;;4975489;28;20059;-52
2022/05/23 05:56:59;;;;;;;9.52;3.63;;;;;;;;;;4990638;28;20383;-58
2022/05/23 05:59:28;;;;;;;34.42;17.15;;;;;;;;;;4990660;28;20133;-55
2022/05/23 06:01:57;;;;;;;8.02;4.00;;;;;;;;;;4990627;28;20459;-63
2022/05/23 06:04:28;;;;;;;8.27;2.72;;;;;;;;;;4990564;28;20069;-51
2022/05/23 06:12:54;;;;;;;7.63;2.88;;;;;;;;;;4990401;28;20057;-46
2022/05/23 06:16:00;;;;;;;5.60;2.50;;;;;;;;;;4972980;28;20624;-52
2022/05/23 06:18:35;;;;;;;7.97;2.75;;;;;;;;;;4942210;28;20137;-50
2022/05/23 06:21:09;;;;;;;7.57;2.78;;;;;;;;;;4974388;28;20054;-47
2022/05/23 06:23:42;;;;;;;6.18;2.88;;;;;;;;;;4990091;28;20050;-55
2022/05/23 06:26:26;;;;;;;6.20;2.47;;;;;;;;;;4990163;28;20509;-61
2022/05/23 06:29:12;;;;;;;7.47;2.47;;;;;;;;;;4979141;28;20816;-62
2022/05/23 06:31:40;;;;;;;6.50;2.63;;;;;;;;;;4994526;28;20038;-53
2022/05/23 06:34:14;;;;;;;4.63;2.15;;;;;;;;;;4993519;28;20122;-59
2022/05/23 06:36:44;;;;;;;8.27;3.22;;;;;;;;;;4993159;28;20132;-52
2022/05/23 06:39:12;;;;;;;9.60;3.85;;;;;;;;;;4993230;28;20528;-58
2022/05/23 06:42:05;;;;;;;6.13;2.53;;;;;;;;;;4994209;28;20165;-49
2022/05/23 06:44:51;;;;;;;6.10;2.33;;;;;;;;;;4994394;28;20420;-48
2022/05/23 06:47:39;;;;;;;6.55;2.85;;;;;;;;;;4983280;28;20058;-60
2022/05/23 06:50:25;;;;;;;8.07;2.85;;;;;;;;;;4993939;28;20053;-50
2022/05/23 06:53:09;;;;;;;7.15;2.80;;;;;;;;;;4992883;28;20042;-52
2022/05/23 06:55:59;;;;;;;5.25;2.70;;;;;;;;;;4993846;28;20053;-52
2022/05/23 06:58:26;;;;;;;7.05;2.65;;;;;;;;;;4992797;28;20096;-58
2022/05/23 07:00:54;;;;;;;6.00;2.20;;;;;;;;;;4993827;28;20046;-63
2022/05/23 07:03:42;;;;;;;166.82;81.38;;;;;;;;;;4994040;28;20054;-56
2022/05/23 07:14:41;;;;;;;7.10;3.00;;;;;;;;;;4993648;28;20081;-51
2022/05/23 07:17:09;;;;;;;7.97;2.88;;;;;;;;;;4992280;28;20077;-50
2022/05/23 07:20:01;;;;;;;6.60;2.70;;;;;;;;;;4992392;28;20050;-58
2022/05/23 07:22:29;;;;;;;5.47;2.60;;;;;;;;;;5008546;28;20054;-54
2022/05/23 07:24:58;;;;;;;6.15;2.97;;;;;;;;;;4992418;28;20541;-54
2022/05/23 07:27:28;;;;;;;7.22;2.80;;;;;;;;;;4992137;28;20046;-55
2022/05/23 07:29:56;;;;;;;5.70;2.95;;;;;;;;;;4998533;28;20093;-57
2022/05/23 07:32:25;;;;;;;4.65;3.10;;;;;;;;;;5008358;28;20449;-50
2022/05/23 07:34:54;;;;;;;6.10;2.85;;;;;;;;;;4993323;28;20042;-52
2022/05/23 07:37:22;;;;;;;7.10;3.33;;;;;;;;;;4991884;28;20505;-52
2022/05/23 07:39:50;;;;;;;35.72;17.33;;;;;;;;;;4993075;28;20057;-58
2022/05/23 07:42:40;;;;;;;7.50;4.43;;;;;;;;;;4991769;28;20410;-51
2022/05/23 07:45:11;;;;;;;8.32;4.22;;;;;;;;;;4993071;28;20061;-54
2022/05/23 07:47:41;;;;;;;7.47;3.72;;;;;;;;;;5008051;28;20046;-50
2022/05/23 07:50:22;;;;;;;6.80;3.10;;;;;;;;;;5007722;28;20097;-51
2022/05/23 08:01:27;;;;;;;6.60;3.75;;;;;;;;;;4991330;28;20467;-55
2022/05/23 08:04:00;;;;;;;4.68;2.63;;;;;;;;;;4992640;28;20074;-51
2022/05/23 08:06:36;;;;;;;9.80;3.05;;;;;;;;;;5007667;28;20046;-50
2022/05/23 08:09:07;;;;;;;5.43;2.53;;;;;;;;;;5007963;28;20046;-51
2022/05/23 08:11:44;;;;;;;5.80;2.50;;;;;;;;;;4991318;28;20093;-60
2022/05/23 08:14:13;;;;;;;7.28;2.63;;;;;;;;;;5007596;28;20046;-47
2022/05/23 08:16:52;;;;;;;5.72;2.22;;;;;;;;;;4992466;28;20151;-50
2022/05/23 08:19:31;;;;;;;6.35;2.92;;;;;;;;;;4992446;28;20109;-56
2022/05/23 08:22:22;;;;;;;6.80;4.15;;;;;;;;;;5007417;28;20100;-55
2022/05/23 08:24:57;;;;;;;6.68;3.22;;;;;;;;;;5007650;28;20453;-56
2022/05/23 08:27:27;;;;;;;10.43;3.00;;;;;;;;;;5007571;28;20047;-50
2022/05/23 08:29:57;;;;;;;9.52;2.83;;;;;;;;;;4992152;28;20125;-50
2022/05/23 08:32:24;;;;;;;7.60;2.90;;;;;;;;;;5007323;28;20046;-56
2022/05/23 08:35:02;;;;;;;8.40;2.60;;;;;;;;;;4990855;28;20046;-54
2022/05/23 08:37:29;;;;;;;6.38;3.30;;;;;;;;;;4992154;28;20082;-46
2022/05/23 08:39:56;;;;;;;5.45;2.65;;;;;;;;;;4990625;28;20070;-50
2022/05/23 08:42:35;;;;;;;7.25;2.58;;;;;;;;;;4992190;28;20061;-47
2022/05/23 08:45:25;;;;;;;4.65;2.63;;;;;;;;;;4990937;28;20485;-48
2022/05/23 08:48:11;;;;;;;7.35;2.72;;;;;;;;;;4990546;28;20050;-52
2022/05/23 08:51:10;;;;;;;4.65;2.60;;;;;;;;;;4990806;28;20058;-51
2022/05/23 08:54:54;;;;;;;8.48;2.70;;;;;;;;;;4991472;28;20053;-48
2022/05/23 08:57:50;;;;;;;9.65;5.57;;;;;;;;;;4984671;28;20185;-52
2022/05/23 09:00:23;;;;;;;35.03;19.02;;;;;;;;;;4989696;28;20502;-51
2022/05/23 09:03:25;;;;;;;6.22;3.75;;;;;;;;;;4990803;28;20042;-54
2022/05/23 09:06:20;;;;;;;4.28;3.05;;;;;;;;;;5004687;28;20089;-54
2022/05/23 09:08:57;;;;;;;6.70;3.15;;;;;;;;;;4991849;28;20514;-52
2022/05/23 09:11:38;;;;;;;4.68;3.10;;;;;;;;;;4991720;28;20057;-46
2022/05/23 09:14:06;;;;;;;5.00;2.85;;;;;;;;;;4991770;28;20057;-51
2022/05/23 09:16:41;;;;;;;6.63;2.55;;;;;;;;;;4991836;28;20048;-51
2022/05/23 09:19:31;;;;;;;6.53;2.30;;;;;;;;;;4991580;28;20056;-47
2022/05/23 09:22:24;;;;;;;6.80;2.47;;;;;;;;;;4991837;28;20038;-49
2022/05/23 09:24:57;;;;;;;3.90;2.60;;;;;;;;;;4990291;28;20137;-48
2022/05/23 09:27:30;;;;;;;4.07;2.58;;;;;;;;;;4991779;28;20057;-49
2022/05/23 09:29:59;;;;;;;6.22;2.22;;;;;;;;;;4991652;28;20042;-50
2022/05/23 09:32:36;;;;;;;6.28;2.70;;;;;;;;;;4991699;28;20492;-56
2022/05/23 09:35:22;;;;;;;17.98;10.40;;;;;;;;;;4991359;28;20061;-57
2022/05/23 09:38:14;;;;;;;7.75;3.20;;;;;;;;;;4991820;28;20049;-58
2022/05/23 09:47:44;;;;;;;5.40;2.80;;;;;;;;;;4991390;28;20057;-53
2022/05/23 09:50:27;;;;;;;6.97;2.45;;;;;;;;;;4990979;28;20049;-53
2022/05/23 09:53:18;;;;;;;6.00;2.22;;;;;;;;;;4991475;28;20675;-47
2022/05/23 09:55:45;;;;;;;4.90;2.50;;;;;;;;;;4990054;28;20062;-47
2022/05/23 09:58:22;;;;;;;3.55;2.03;;;;;;;;;;4989982;28;20038;-51
2022/05/23 10:01:08;;;;;;;5.43;2.80;;;;;;;;;;4991363;28;20398;-54
2022/05/23 10:03:48;;;;;;;5.32;2.22;;;;;;;;;;4991482;28;20053;-55
2022/05/23 10:06:17;;;;;;;4.63;2.17;;;;;;;;;;4991192;28;20034;-54
2022/05/23 10:08:48;;;;;;;4.90;2.15;;;;;;;;;;4991304;28;20046;-51
2022/05/23 10:11:36;;;;;;;3.30;1.98;;;;;;;;;;4993644;28;20050;-53
2022/05/23 10:14:16;;;;;;;3.88;2.28;;;;;;;;;;4994725;28;20038;-56
2022/05/23 10:16:49;;;;;;;4.03;1.95;;;;;;;;;;5009459;28;20373;-52
2022/05/23 10:19:34;;;;;;;4.90;2.60;;;;;;;;;;4994753;28;20054;-55
2022/05/23 10:22:07;;;;;;;4.20;2.20;;;;;;;;;;4994785;28;20046;-48
2022/05/23 10:24:36;;;;;;;3.75;2.10;;;;;;;;;;4994550;28;20043;-56
2022/05/23 10:27:09;;;;;;;4.75;2.28;;;;;;;;;;4994581;28;20042;-48
2022/05/23 10:29:56;;;;;;;3.25;2.00;;;;;;;;;;4994571;28;20394;-46
2022/05/23 10:32:42;;;;;;;3.53;2.00;;;;;;;;;;4994643;28;20100;-46
2022/05/23 10:35:17;;;;;;;2.72;1.70;;;;;;;;;;4994953;28;20040;-46
2022/05/23 10:37:45;;;;;;;5.70;2.05;;;;;;;;;;4994019;28;20494;-52
2022/05/23 10:43:19;;;;;;;4.85;2.33;;;;;;;;;;4994421;28;20133;-46
2022/05/23 10:45:55;;;;;;;40.28;19.33;;;;;;;;;;4994353;28;20564;-49
2022/05/23 10:48:44;;;;;;;20.65;11.40;;;;;;;;;;4994223;28;20057;-49
2022/05/23 10:51:23;;;;;;;5.53;2.28;;;;;;;;;;4994249;28;20174;-52
2022/05/23 10:54:30;;;;;;;5.90;2.10;;;;;;;;;;4994179;28;20045;-51
2022/05/23 10:57:12;;;;;;;6.00;2.33;;;;;;;;;;4994206;28;20130;-51
2022/05/23 11:00:03;;;;;;;5.47;2.10;;;;;;;;;;4994035;28;20059;-48
2022/05/23 11:02:45;;;;;;;;;;;;;;;;;;4994429;28;20409;-51
2022/05/23 11:05:27;;;;;;;3.67;2.15;;;;;;;;;;4994046;28;19922;-62
2022/05/23 11:08:25;;;;;;;4.43;2.17;;;;;;;;;;4993797;28;20042;-53
2022/05/23 11:11:12;;;;;;;4.88;1.90;;;;;;;;;;4993596;28;20050;-51
2022/05/23 11:13:49;;;;;;;2.88;1.80;;;;;;;;;;4991750;28;20042;-53
2022/05/23 11:16:54;;;;;;;3.42;1.60;;;;;;;;;;4991704;28;20034;-58
2022/05/23 11:19:50;;;;;;;2.70;1.50;;;;;;;;;;4991450;28;20506;-54
2022/05/23 11:22:23;;;;;;;4.28;1.90;;;;;;;;;;4991686;28;20117;-49
2022/05/23 11:25:21;;;;;;;5.10;2.28;;;;;;;;;;4990586;28;20049;-55
2022/05/23 11:35:06;;;;;;;4.07;1.60;;;;;;;;;;4971932;28;20106;-57
2022/05/23 11:37:45;;;;;;;6.15;1.83;;;;;;;;;;4971702;28;20046;-58
2022/05/23 11:40:25;;;;;;;3.03;1.70;;;;;;;;;;4992863;28;20057;-58
2022/05/23 11:43:15;;;;;;;4.20;2.22;;;;;;;;;;4993032;28;20057;-56
2022/05/23 11:45:57;;;;;;;2.70;1.40;;;;;;;;;;4993265;28;20457;-57
2022/05/23 11:48:34;;;;;;;4.30;1.50;;;;;;;;;;4993076;28;20077;-55
2022/05/23 11:51:23;;;;;;;2.55;1.33;;;;;;;;;;4993021;28;20145;-53
2022/05/23 11:53:56;;;;;;;2.85;1.48;;;;;;;;;;4993078;28;20505;-52
2022/05/23 11:56:48;;;;;;;2.35;1.45;;;;;;;;;;4992906;28;20078;-49
2022/05/23 11:59:18;;;;;;;2.60;1.50;;;;;;;;;;4991502;28;20569;-47
2022/05/23 12:02:08;;;;;;;2.15;1.42;;;;;;;;;;4992922;28;20093;-53
2022/05/23 12:04:52;;;;;;;3.47;1.60;;;;;;;;;;4992800;28;20125;-50
2022/05/23 12:07:34;;;;;;;3.50;1.48;;;;;;;;;;4992599;28;20041;-48
2022/05/23 12:10:36;;;;;;;1.90;1.30;;;;;;;;;;4992898;28;20042;-56
2022/05/23 12:13:41;;;;;;;1.80;1.02;;;;;;;;;;4981799;28;20090;-48
2022/05/23 12:16:31;;;;;;;2.33;1.15;;;;;;;;;;4992637;28;20073;-51
2022/05/23 12:19:14;;;;;;;2.30;1.50;;;;;;;;;;4985186;28;20081;-48
2022/05/23 12:21:45;;;;;;;4.97;1.23;;;;;;;;;;4992131;28;20070;-49
2022/05/23 12:24:26;;;;;;;2.15;1.20;;;;;;;;;;4992289;28;20038;-50
2022/05/23 12:27:27;;;;;;;2.88;1.15;;;;;;;;;;4992245;28;20045;-48
2022/05/23 12:30:24;;;;;;;3.45;1.83;;;;;;;;;;4992347;28;20054;-51
2022/05/23 12:33:00;;;;;;;4.47;1.65;;;;;;;;;;4992546;28;20073;-48
2022/05/23 12:35:30;;;;;;;3.17;1.25;;;;;;;;;;4991032;28;20050;-55
2022/05/23 12:38:12;;;;;;;1.73;1.17;;;;;;;;;;4992483;28;20049;-52
2022/05/23 12:41:07;;;;;;;3.88;1.40;;;;;;;;;;4992375;28;20141;-47
2022/05/23 12:44:02;;;;;;;1.13;0.77;;;;;;;;;;4992184;28;20117;-52
2022/05/23 12:46:57;;;;;;;2.17;1.05;;;;;;;;;;4992275;28;20038;-51
2022/05/23 12:49:27;;;;;;;3.30;0.90;;;;;;;;;;4990880;28;20077;-49
2022/05/23 12:52:25;;;;;;;1.63;1.05;;;;;;;;;;4992093;28;20046;-49
2022/05/23 12:55:23;;;;;;;2.90;1.00;;;;;;;;;;4992240;28;20057;-49
2022/05/23 12:58:08;;;;;;;1.35;0.85;;;;;;;;;;4992054;28;20042;-51
2022/05/23 13:00:43;;;;;;;1.40;0.85;;;;;;;;;;4992032;28;20445;-48
2022/05/23 13:03:30;;;;;;;2.28;1.30;;;;;;;;;;4992029;28;20050;-55
2022/05/23 13:06:22;;;;;;;1.92;0.90;;;;;;;;;;4991881;28;20046;-49
2022/05/23 13:09:02;;;;;;;7.45;0.88;;;;;;;;;;4992055;28;20101;-56
2022/05/23 13:11:37;;;;;;;0.88;0.80;;;;;;;;;;4991951;28;20410;-55
2022/05/23 13:14:04;;;;;;;2.22;0.77;;;;;;;;;;4991937;28;20100;-53
2022/05/23 13:16:37;;;;;;;2.38;0.90;;;;;;;;;;4991966;28;20490;-47
2022/05/23 13:22:06;;;;;;;1.25;0.80;;;;;;;;;;4992225;28;20054;-52
2022/05/23 13:24:55;;;;;;;2.83;1.05;;;;;;;;;;4992000;28;20042;-53
2022/05/23 13:27:38;;;;;;;1.73;0.80;;;;;;;;;;4991930;28;20046;-50
2022/05/23 13:30:08;;;;;;;2.00;0.95;;;;;;;;;;4991658;28;20046;-50
2022/05/23 13:32:36;;;;;;;2.10;1.00;;;;;;;;;;4991759;28;20046;-48
2022/05/23 13:35:21;;;;;;;1.35;0.90;;;;;;;;;;4991947;28;20048;-49
2022/05/23 13:37:48;;;;;;;1.77;1.00;;;;;;;;;;4991598;28;20038;-47
2022/05/23 13:40:19;;;;;;;2.08;0.80;;;;;;;;;;4991658;28;20406;-47
2022/05/23 13:42:46;;;;;;;1.48;0.68;;;;;;;;;;4991661;28;20038;-51
2022/05/23 13:45:23;;;;;;;3.80;0.80;;;;;;;;;;4991613;28;20050;-50
2022/05/23 13:48:10;;;;;;;2.20;0.80;;;;;;;;;;4994431;28;20078;-50
2022/05/23 13:50:45;;;;;;;2.38;0.90;;;;;;;;;;4995321;28;20042;-52
2022/05/23 13:53:25;;;;;;;1.98;0.90;;;;;;;;;;4995459;28;20053;-50
2022/05/23 13:55:54;;;;;;;1.70;0.80;;;;;;;;;;4995091;28;20054;-51
2022/05/23 13:58:28;;;;;;;1.05;0.70;;;;;;;;;;4995290;28;20129;-52
2022/05/23 14:01:07;;;;;;;2.03;0.68;;;;;;;;;;4995209;28;20034;-51
2022/05/23 14:03:51;;;;;;;2.10;0.90;;;;;;;;;;4995006;28;20520;-49
2022/05/23 14:06:25;;;;;;;1.80;0.97;;;;;;;;;;4993947;28;20042;-49
2022/05/23 14:08:59;;;;;;;1.83;1.00;;;;;;;;;;4995100;28;20497;-52
2022/05/23 14:11:33;;;;;;;2.50;1.35;;;;;;;;;;4995158;28;20042;-58
2022/05/23 14:14:29;;;;;;;2.58;1.08;;;;;;;;;;4995051;28;20050;-51
2022/05/23 14:17:12;;;;;;;13.18;5.47;;;;;;;;;;4994374;28;20066;-55
2022/05/23 14:19:49;;;;;;;3.78;1.88;;;;;;;;;;4994458;28;20062;-56
2022/05/23 14:22:22;;;;;;;2.83;1.42;;;;;;;;;;5009728;28;20053;-53
2022/05/23 14:24:53;;;;;;;4.32;1.10;;;;;;;;;;4994718;28;20398;-53
2022/05/23 14:27:26;;;;;;;2.05;0.90;;;;;;;;;;4994843;28;20118;-54
2022/05/23 14:30:19;;;;;;;2.42;1.08;;;;;;;;;;4994514;28;20425;-54
2022/05/23 14:32:59;;;;;;;1.88;1.10;;;;;;;;;;4991477;28;20081;-57
2022/05/23 14:35:34;;;;;;;2.63;1.02;;;;;;;;;;4994404;28;20046;-55
2022/05/23 14:38:02;;;;;;;3.47;1.27;;;;;;;;;;4994562;28;20043;-53
2022/05/23 14:40:37;;;;;;;1.77;1.10;;;;;;;;;;4994430;28;20059;-56
2022/05/23 14:43:11;;;;;;;3.35;1.20;;;;;;;;;;4994538;28;20544;-51
2022/05/23 14:45:53;;;;;;;4.90;1.15;;;;;;;;;;4994345;28;20082;-53
2022/05/23 14:48:32;;;;;;;2.03;1.23;;;;;;;;;;4994364;28;20042;-56
2022/05/23 14:51:10;;;;;;;2.42;1.25;;;;;;;;;;4994255;28;20043;-51
2022/05/23 14:56:37;;;;;;;5.32;2.80;;;;;;;;;;4994388;28;20046;-49
2022/05/23 15:02:05;;;;;;;2.63;1.40;;;;;;;;;;4994294;28;20042;-53
2022/05/23 15:04:34;;;;;;;3.47;1.83;;;;;;;;;;4994157;28;20105;-50
2022/05/23 15:07:02;;;;;;;2.80;1.40;;;;;;;;;;4994164;28;20035;-49
2022/05/23 15:09:30;;;;;;;3.85;1.52;;;;;;;;;;4993927;28;20085;-47
2022/05/23 15:11:58;;;;;;;2.20;1.20;;;;;;;;;;4993949;28;20046;-52
2022/05/23 15:14:26;;;;;;;2.65;1.30;;;;;;;;;;4993725;28;20113;-51
2022/05/23 15:16:54;;;;;;;4.25;1.25;;;;;;;;;;4993621;28;20055;-48
2022/05/23 15:19:22;;;;;;;2.92;1.40;;;;;;;;;;4993608;28;20064;-52
2022/05/23 15:21:50;;;;;;;2.80;1.50;;;;;;;;;;4993845;28;20042;-53
2022/05/23 15:24:19;;;;;;;3.15;1.00;;;;;;;;;;4993602;28;20043;-51
2022/05/23 15:26:46;;;;;;;2.80;1.20;;;;;;;;;;4993622;28;20505;-51
2022/05/23 15:29:14;;;;;;;2.15;1.10;;;;;;;;;;4993551;28;20034;-50
2022/05/23 15:31:50;;;;;;;2.22;1.27;;;;;;;;;;4993541;28;20471;-48
2022/05/23 15:34:20;;;;;;;31.35;19.30;;;;;;;;;;4993432;28;20454;-56
2022/05/23 15:36:47;;;;;;;24.60;13.05;;;;;;;;;;4993425;28;20070;-53
2022/05/23 15:39:18;;;;;;;3.95;1.88;;;;;;;;;;4993436;28;20042;-51
2022/05/23 15:41:48;;;;;;;2.13;1.17;;;;;;;;;;4993385;28;20042;-51
2022/05/23 15:44:18;;;;;;;4.70;1.50;;;;;;;;;;4993219;28;20572;-64
2022/05/23 15:46:48;;;;;;;2.05;1.00;;;;;;;;;;4993366;28;20457;-52
2022/05/23 15:49:16;;;;;;;3.35;1.33;;;;;;;;;;4993371;28;20496;-51
2022/05/23 15:51:44;;;;;;;1.85;0.95;;;;;;;;;;4993155;28;20045;-56
2022/05/23 15:54:11;;;;;;;2.55;1.15;;;;;;;;;;4993022;28;20046;-54
2022/05/23 15:56:39;;;;;;;2.42;1.30;;;;;;;;;;4991846;28;20046;-52
2022/05/23 15:59:09;;;;;;;1.35;0.85;;;;;;;;;;4993048;28;20081;-51
2022/05/23 16:01:36;;;;;;;1.60;0.77;;;;;;;;;;4992869;28;20502;-57
2022/05/23 16:04:04;;;;;;;2.60;1.40;;;;;;;;;;4993126;28;20066;-50
2022/05/23 16:06:31;;;;;;;1.75;0.95;;;;;;;;;;4993161;28;20183;-50
2022/05/23 16:08:58;;;;;;;2.88;0.70;;;;;;;;;;4992544;28;20080;-49
2022/05/23 16:11:30;;;;;;;2.03;0.98;;;;;;;;;;4992780;28;20051;-49
2022/05/23 16:14:05;;;;;;;3.88;1.48;;;;;;;;;;4992779;28;20485;-48
2022/05/23 16:16:33;;;;;;;1.77;1.08;;;;;;;;;;4992881;28;20046;-54
2022/05/23 16:19:03;;;;;;;1.80;0.98;;;;;;;;;;4992531;28;20050;-50
2022/05/23 16:21:31;;;;;;;1.85;1.27;;;;;;;;;;4992700;28;20165;-53
2022/05/23 16:24:01;;;;;;;3.88;1.17;;;;;;;;;;4992614;28;20034;-58
2022/05/23 16:26:31;;;;;;;2.23;1.30;;;;;;;;;;4992553;28;20038;-57
2022/05/23 16:28:58;;;;;;;4.60;1.40;;;;;;;;;;4992391;28;20042;-53
2022/05/23 16:31:26;;;;;;;3.53;1.02;;;;;;;;;;4992424;28;20574;-53
2022/05/23 16:36:45;;;;;;;4.50;1.25;;;;;;;;;;4992624;28;20097;-50
2022/05/23 16:39:17;;;;;;;2.55;1.05;;;;;;;;;;4992252;28;20133;-51
2022/05/23 16:42:04;;;;;;;1.92;1.10;;;;;;;;;;4992515;28;20459;-52
2022/05/23 16:44:31;;;;;;;3.75;1.00;;;;;;;;;;4992362;28;20045;-52
2022/05/23 16:46:59;;;;;;;2.00;0.90;;;;;;;;;;5007204;28;20482;-50
2022/05/23 16:49:27;;;;;;;2.38;1.10;;;;;;;;;;4992397;28;20089;-49